sensor_id;sensor_type;location;lat;lon;timestamp;P1;durP1;ratioP1;P2;durP2;ratioP2
14015;SDS011;7083;48.854;9.158;2023-03-01T00:02:15;1999.90;;;999.90;;
14015;SDS011;7083;48.854;9.158;2023-03-01T00:04:42;1999.90;;;999.90;;
14015;SDS011;7083;48.854;9.158;2023-03-01T00:07:08;1999.90;;;999.90;;
14015;SDS011;7083;48.854;9.158;2023-03-01T00:09:35;1999.90;;;999.90;;
14015;SDS011;7083;48.854;9.158;2023-03-01T00:12:03;1999.90;;;999.90;;
14015;SDS011;7083;48.854;9.158;2023-03-01T00:14:30;1999.90;;;999.90;;
14015;SDS011;7083;48.854;9.158;2023-03-01T00:16:58;1999.90;;;999.90;;
14015;SDS011;7083;48.854;9.158;2023-03-01T00:19:24;1999.90;;;999.90;;
14015;SDS011;7083;48.854;9.158;2023-03-01T00:21:51;1999.90;;;999.90;;
14015;SDS011;7083;48.854;9.158;2023-03-01T00:24:18;1999.90;;;999.90;;
14015;SDS011;7083;48.854;9.158;2023-03-01T00:26:44;1999.90;;;999.90;;
14015;SDS011;7083;48.854;9.158;2023-03-01T00:29:11;1999.90;;;999.90;;
14015;SDS011;7083;48.854;9.158;2023-03-01T00:31:38;1999.90;;;999.90;;
14015;SDS011;7083;48.854;9.158;2023-03-01T00:34:06;1999.90;;;999.90;;
14015;SDS011;7083;48.854;9.158;2023-03-01T00:36:34;1999.90;;;999.90;;
14015;SDS011;7083;48.854;9.158;2023-03-01T00:39:02;1999.90;;;999.90;;
14015;SDS011;7083;48.854;9.158;2023-03-01T00:41:30;1999.90;;;999.90;;
14015;SDS011;7083;48.854;9.158;2023-03-01T00:43:58;1999.90;;;999.90;;
14015;SDS011;7083;48.854;9.158;2023-03-01T00:46:26;1999.90;;;999.90;;
14015;SDS011;7083;48.854;9.158;2023-03-01T00:48:55;1999.90;;;999.90;;
14015;SDS011;7083;48.854;9.158;2023-03-01T00:51:28;1999.90;;;999.90;;
14015;SDS011;7083;48.854;9.158;2023-03-01T00:53:56;1999.90;;;999.90;;
14015;SDS011;7083;48.854;9.158;2023-03-01T00:56:24;1999.90;;;999.90;;
14015;SDS011;7083;48.854;9.158;2023-03-01T00:58:52;1999.90;;;999.90;;
14015;SDS011;7083;48.854;9.158;2023-03-01T01:01:19;1999.90;;;999.90;;
14015;SDS011;7083;48.854;9.158;2023-03-01T01:03:48;1999.90;;;999.90;;
14015;SDS011;7083;48.854;9.158;2023-03-01T01:06:17;1999.90;;;999.90;;
14015;SDS011;7083;48.854;9.158;2023-03-01T01:08:46;1999.90;;;999.90;;
14015;SDS011;7083;48.854;9.158;2023-03-01T01:11:14;1999.90;;;999.90;;
14015;SDS011;7083;48.854;9.158;2023-03-01T01:13:41;1999.90;;;999.90;;
14015;SDS011;7083;48.854;9.158;2023-03-01T01:16:08;1999.90;;;999.90;;
14015;SDS011;7083;48.854;9.158;2023-03-01T01:18:35;1999.90;;;999.90;;
14015;SDS011;7083;48.854;9.158;2023-03-01T01:21:06;1999.90;;;999.90;;
14015;SDS011;7083;48.854;9.158;2023-03-01T01:23:34;1999.90;;;999.90;;
14015;SDS011;7083;48.854;9.158;2023-03-01T01:26:07;1999.90;;;999.90;;
14015;SDS011;7083;48.854;9.158;2023-03-01T01:28:35;1999.90;;;999.90;;
14015;SDS011;7083;48.854;9.158;2023-03-01T01:31:02;1999.90;;;999.90;;
14015;SDS011;7083;48.854;9.158;2023-03-01T01:33:29;1999.90;;;999.90;;
14015;SDS011;7083;48.854;9.158;2023-03-01T01:35:56;1999.90;;;999.90;;
14015;SDS011;7083;48.854;9.158;2023-03-01T01:38:23;1999.90;;;999.90;;
14015;SDS011;7083;48.854;9.158;2023-03-01T01:40:50;1999.90;;;999.90;;
14015;SDS011;7083;48.854;9.158;2023-03-01T01:43:19;1999.90;;;999.90;;
14015;SDS011;7083;48.854;9.158;2023-03-01T01:45:48;1999.90;;;999.90;;
14015;SDS011;7083;48.854;9.158;2023-03-01T01:48:16;1999.90;;;999.90;;
14015;SDS011;7083;48.854;9.158;2023-03-01T01:50:46;1999.90;;;999.90;;
14015;SDS011;7083;48.854;9.158;2023-03-01T01:53:21;1999.90;;;999.90;;
14015;SDS011;7083;48.854;9.158;2023-03-01T01:55:51;1999.90;;;999.90;;
14015;SDS011;7083;48.854;9.158;2023-03-01T01:58:23;1999.90;;;999.90;;
14015;SDS011;7083;48.854;9.158;2023-03-01T02:00:52;1999.90;;;999.90;;
14015;SDS011;7083;48.854;9.158;2023-03-01T02:03:20;1999.90;;;999.90;;
14015;SDS011;7083;48.854;9.158;2023-03-01T02:05:55;1999.90;;;999.90;;
14015;SDS011;7083;48.854;9.158;2023-03-01T02:08:27;1999.90;;;999.90;;
14015;SDS011;7083;48.854;9.158;2023-03-01T02:10:56;1999.90;;;999.90;;
14015;SDS011;7083;48.854;9.158;2023-03-01T02:13:26;1999.90;;;999.90;;
14015;SDS011;7083;48.854;9.158;2023-03-01T02:15:53;1999.90;;;999.90;;
14015;SDS011;7083;48.854;9.158;2023-03-01T02:18:21;1999.90;;;999.90;;
14015;SDS011;7083;48.854;9.158;2023-03-01T02:20:52;1999.90;;;999.90;;
14015;SDS011;7083;48.854;9.158;2023-03-01T02:23:27;1999.90;;;999.90;;
14015;SDS011;7083;48.854;9.158;2023-03-01T02:25:56;1999.90;;;999.90;;
14015;SDS011;7083;48.854;9.158;2023-03-01T02:28:30;1999.90;;;999.90;;
14015;SDS011;7083;48.854;9.158;2023-03-01T02:30:58;284.37;;;272.87;;
14015;SDS011;7083;48.854;9.158;2023-03-01T02:33:42;1426.40;;;755.97;;
14015;SDS011;7083;48.854;9.158;2023-03-01T02:36:14;274.13;;;263.10;;
14015;SDS011;7083;48.854;9.158;2023-03-01T02:38:48;256.43;;;246.40;;
14015;SDS011;7083;48.854;9.158;2023-03-01T02:41:17;253.10;;;242.77;;
14015;SDS011;7083;48.854;9.158;2023-03-01T02:43:47;256.90;;;246.60;;
14015;SDS011;7083;48.854;9.158;2023-03-01T02:46:15;249.00;;;239.00;;
14015;SDS011;7083;48.854;9.158;2023-03-01T02:48:44;266.37;;;255.87;;
14015;SDS011;7083;48.854;9.158;2023-03-01T02:51:24;241.33;;;231.83;;
14015;SDS011;7083;48.854;9.158;2023-03-01T02:54:05;247.30;;;237.37;;
14015;SDS011;7083;48.854;9.158;2023-03-01T02:56:38;230.47;;;221.27;;
14015;SDS011;7083;48.854;9.158;2023-03-01T02:59:06;228.73;;;219.40;;
14015;SDS011;7083;48.854;9.158;2023-03-01T03:01:34;240.50;;;230.97;;
14015;SDS011;7083;48.854;9.158;2023-03-01T03:04:03;206.63;;;198.50;;
14015;SDS011;7083;48.854;9.158;2023-03-01T03:06:30;210.77;;;201.97;;
14015;SDS011;7083;48.854;9.158;2023-03-01T03:08:57;1999.90;;;999.90;;
14015;SDS011;7083;48.854;9.158;2023-03-01T03:11:25;1999.90;;;999.90;;
14015;SDS011;7083;48.854;9.158;2023-03-01T03:13:52;1999.90;;;999.90;;
14015;SDS011;7083;48.854;9.158;2023-03-01T03:16:20;1999.90;;;999.90;;
14015;SDS011;7083;48.854;9.158;2023-03-01T03:18:47;1999.90;;;999.90;;
14015;SDS011;7083;48.854;9.158;2023-03-01T03:21:14;1999.90;;;999.90;;
14015;SDS011;7083;48.854;9.158;2023-03-01T03:23:42;1999.90;;;999.90;;
14015;SDS011;7083;48.854;9.158;2023-03-01T03:26:09;1999.90;;;999.90;;
14015;SDS011;7083;48.854;9.158;2023-03-01T03:28:38;1999.90;;;999.90;;
14015;SDS011;7083;48.854;9.158;2023-03-01T03:31:05;1999.90;;;999.90;;
14015;SDS011;7083;48.854;9.158;2023-03-01T03:33:34;1999.90;;;999.90;;
14015;SDS011;7083;48.854;9.158;2023-03-01T03:36:00;1999.90;;;999.90;;
14015;SDS011;7083;48.854;9.158;2023-03-01T03:38:27;1999.90;;;999.90;;
14015;SDS011;7083;48.854;9.158;2023-03-01T03:40:59;1999.90;;;999.90;;
14015;SDS011;7083;48.854;9.158;2023-03-01T03:43:28;1999.90;;;999.90;;
14015;SDS011;7083;48.854;9.158;2023-03-01T03:45:56;1999.90;;;999.90;;
14015;SDS011;7083;48.854;9.158;2023-03-01T03:48:23;1999.90;;;999.90;;
14015;SDS011;7083;48.854;9.158;2023-03-01T03:50:52;1999.90;;;999.90;;
14015;SDS011;7083;48.854;9.158;2023-03-01T03:53:21;1999.90;;;999.90;;
14015;SDS011;7083;48.854;9.158;2023-03-01T03:55:48;1999.90;;;999.90;;
14015;SDS011;7083;48.854;9.158;2023-03-01T03:58:16;1999.90;;;999.90;;
14015;SDS011;7083;48.854;9.158;2023-03-01T04:00:46;1999.90;;;999.90;;
14015;SDS011;7083;48.854;9.158;2023-03-01T04:03:14;1999.90;;;999.90;;
14015;SDS011;7083;48.854;9.158;2023-03-01T04:05:41;1999.90;;;999.90;;
14015;SDS011;7083;48.854;9.158;2023-03-01T04:08:10;1999.90;;;999.90;;
14015;SDS011;7083;48.854;9.158;2023-03-01T04:10:37;1999.90;;;999.90;;
14015;SDS011;7083;48.854;9.158;2023-03-01T04:13:06;1999.90;;;999.90;;
14015;SDS011;7083;48.854;9.158;2023-03-01T04:15:35;1999.90;;;999.90;;
14015;SDS011;7083;48.854;9.158;2023-03-01T04:18:02;1999.90;;;999.90;;
14015;SDS011;7083;48.854;9.158;2023-03-01T04:20:30;1999.90;;;999.90;;
14015;SDS011;7083;48.854;9.158;2023-03-01T04:23:00;1999.90;;;999.90;;
14015;SDS011;7083;48.854;9.158;2023-03-01T04:25:36;1999.90;;;999.90;;
14015;SDS011;7083;48.854;9.158;2023-03-01T04:28:03;1999.90;;;999.90;;
14015;SDS011;7083;48.854;9.158;2023-03-01T04:30:30;1999.90;;;999.90;;
14015;SDS011;7083;48.854;9.158;2023-03-01T04:33:00;1999.90;;;999.90;;
14015;SDS011;7083;48.854;9.158;2023-03-01T04:35:27;1999.90;;;999.90;;
14015;SDS011;7083;48.854;9.158;2023-03-01T04:37:54;1999.90;;;999.90;;
14015;SDS011;7083;48.854;9.158;2023-03-01T04:40:21;1999.90;;;999.90;;
14015;SDS011;7083;48.854;9.158;2023-03-01T04:42:49;1999.90;;;999.90;;
14015;SDS011;7083;48.854;9.158;2023-03-01T04:45:16;1999.90;;;999.90;;
14015;SDS011;7083;48.854;9.158;2023-03-01T04:47:43;1999.90;;;999.90;;
14015;SDS011;7083;48.854;9.158;2023-03-01T04:50:14;1999.90;;;999.90;;
14015;SDS011;7083;48.854;9.158;2023-03-01T04:52:45;1999.90;;;999.90;;
14015;SDS011;7083;48.854;9.158;2023-03-01T04:55:13;1999.90;;;999.90;;
14015;SDS011;7083;48.854;9.158;2023-03-01T04:57:40;1999.90;;;999.90;;
14015;SDS011;7083;48.854;9.158;2023-03-01T05:00:09;1999.90;;;999.90;;
14015;SDS011;7083;48.854;9.158;2023-03-01T05:02:49;1999.90;;;999.90;;
14015;SDS011;7083;48.854;9.158;2023-03-01T05:05:18;1999.90;;;999.90;;
14015;SDS011;7083;48.854;9.158;2023-03-01T05:07:50;1999.90;;;999.90;;
14015;SDS011;7083;48.854;9.158;2023-03-01T05:10:17;1999.90;;;999.90;;
14015;SDS011;7083;48.854;9.158;2023-03-01T05:12:44;1999.90;;;999.90;;
14015;SDS011;7083;48.854;9.158;2023-03-01T05:15:13;1999.90;;;999.90;;
14015;SDS011;7083;48.854;9.158;2023-03-01T05:17:39;1999.90;;;999.90;;
14015;SDS011;7083;48.854;9.158;2023-03-01T05:20:07;1999.90;;;999.90;;
14015;SDS011;7083;48.854;9.158;2023-03-01T05:22:38;1999.90;;;999.90;;
14015;SDS011;7083;48.854;9.158;2023-03-01T05:25:08;1999.90;;;999.90;;
14015;SDS011;7083;48.854;9.158;2023-03-01T05:28:23;1999.90;;;999.90;;
14015;SDS011;7083;48.854;9.158;2023-03-01T05:30:51;1999.90;;;999.90;;
14015;SDS011;7083;48.854;9.158;2023-03-01T05:33:18;1999.90;;;999.90;;
14015;SDS011;7083;48.854;9.158;2023-03-01T05:35:47;1999.90;;;999.90;;
14015;SDS011;7083;48.854;9.158;2023-03-01T05:38:14;1999.90;;;999.90;;
14015;SDS011;7083;48.854;9.158;2023-03-01T05:40:42;1999.90;;;999.90;;
14015;SDS011;7083;48.854;9.158;2023-03-01T05:43:10;1999.90;;;999.90;;
14015;SDS011;7083;48.854;9.158;2023-03-01T05:45:38;1999.90;;;999.90;;
14015;SDS011;7083;48.854;9.158;2023-03-01T05:48:07;1999.90;;;999.90;;
14015;SDS011;7083;48.854;9.158;2023-03-01T05:50:35;1999.90;;;999.90;;
14015;SDS011;7083;48.854;9.158;2023-03-01T05:53:04;1999.90;;;999.90;;
14015;SDS011;7083;48.854;9.158;2023-03-01T05:55:33;1999.90;;;999.90;;
14015;SDS011;7083;48.854;9.158;2023-03-01T05:58:01;1999.90;;;999.90;;
14015;SDS011;7083;48.854;9.158;2023-03-01T06:00:29;1999.90;;;999.90;;
14015;SDS011;7083;48.854;9.158;2023-03-01T06:02:56;1999.90;;;999.90;;
14015;SDS011;7083;48.854;9.158;2023-03-01T06:05:26;1999.90;;;999.90;;
14015;SDS011;7083;48.854;9.158;2023-03-01T06:07:53;1999.90;;;999.90;;
14015;SDS011;7083;48.854;9.158;2023-03-01T06:10:21;1999.90;;;999.90;;
14015;SDS011;7083;48.854;9.158;2023-03-01T06:12:48;1999.90;;;999.90;;
14015;SDS011;7083;48.854;9.158;2023-03-01T06:15:15;1999.90;;;999.90;;
14015;SDS011;7083;48.854;9.158;2023-03-01T06:17:43;1999.90;;;999.90;;
14015;SDS011;7083;48.854;9.158;2023-03-01T06:20:12;1999.90;;;999.90;;
14015;SDS011;7083;48.854;9.158;2023-03-01T06:22:44;1999.90;;;999.90;;
14015;SDS011;7083;48.854;9.158;2023-03-01T06:25:12;1999.90;;;999.90;;
14015;SDS011;7083;48.854;9.158;2023-03-01T06:27:40;1999.90;;;999.90;;
14015;SDS011;7083;48.854;9.158;2023-03-01T06:30:08;1999.90;;;999.90;;
14015;SDS011;7083;48.854;9.158;2023-03-01T06:32:39;1999.90;;;999.90;;
14015;SDS011;7083;48.854;9.158;2023-03-01T06:35:07;1999.90;;;999.90;;
14015;SDS011;7083;48.854;9.158;2023-03-01T06:37:34;1999.90;;;999.90;;
14015;SDS011;7083;48.854;9.158;2023-03-01T06:40:02;1999.90;;;999.90;;
14015;SDS011;7083;48.854;9.158;2023-03-01T06:42:33;1999.90;;;999.90;;
14015;SDS011;7083;48.854;9.158;2023-03-01T06:45:00;1999.90;;;999.90;;
14015;SDS011;7083;48.854;9.158;2023-03-01T06:47:26;1999.90;;;999.90;;
14015;SDS011;7083;48.854;9.158;2023-03-01T06:49:53;1999.90;;;999.90;;
14015;SDS011;7083;48.854;9.158;2023-03-01T06:52:20;1999.90;;;999.90;;
14015;SDS011;7083;48.854;9.158;2023-03-01T06:54:46;1999.90;;;999.90;;
14015;SDS011;7083;48.854;9.158;2023-03-01T06:57:14;1999.90;;;999.90;;
14015;SDS011;7083;48.854;9.158;2023-03-01T06:59:41;1999.90;;;999.90;;
14015;SDS011;7083;48.854;9.158;2023-03-01T07:02:09;1999.90;;;999.90;;
14015;SDS011;7083;48.854;9.158;2023-03-01T07:04:37;1999.90;;;999.90;;
14015;SDS011;7083;48.854;9.158;2023-03-01T07:07:03;1999.90;;;999.90;;
14015;SDS011;7083;48.854;9.158;2023-03-01T07:09:30;1999.90;;;999.90;;
14015;SDS011;7083;48.854;9.158;2023-03-01T07:11:57;1999.90;;;999.90;;
14015;SDS011;7083;48.854;9.158;2023-03-01T07:14:25;1999.90;;;999.90;;
14015;SDS011;7083;48.854;9.158;2023-03-01T07:16:52;1999.90;;;999.90;;
14015;SDS011;7083;48.854;9.158;2023-03-01T07:19:20;1999.90;;;999.90;;
14015;SDS011;7083;48.854;9.158;2023-03-01T07:21:47;1999.90;;;999.90;;
14015;SDS011;7083;48.854;9.158;2023-03-01T07:24:14;1999.90;;;999.90;;
14015;SDS011;7083;48.854;9.158;2023-03-01T07:26:41;1999.90;;;999.90;;
14015;SDS011;7083;48.854;9.158;2023-03-01T07:29:09;1999.90;;;999.90;;
14015;SDS011;7083;48.854;9.158;2023-03-01T07:31:38;1999.90;;;999.90;;
14015;SDS011;7083;48.854;9.158;2023-03-01T07:34:04;1999.90;;;999.90;;
14015;SDS011;7083;48.854;9.158;2023-03-01T07:36:31;1999.90;;;999.90;;
14015;SDS011;7083;48.854;9.158;2023-03-01T07:38:58;1999.90;;;999.90;;
14015;SDS011;7083;48.854;9.158;2023-03-01T07:41:27;1999.90;;;999.90;;
14015;SDS011;7083;48.854;9.158;2023-03-01T07:43:54;1999.90;;;999.90;;
14015;SDS011;7083;48.854;9.158;2023-03-01T07:46:21;1999.90;;;999.90;;
14015;SDS011;7083;48.854;9.158;2023-03-01T07:48:49;1999.90;;;999.90;;
14015;SDS011;7083;48.854;9.158;2023-03-01T07:51:16;1999.90;;;999.90;;
14015;SDS011;7083;48.854;9.158;2023-03-01T07:53:45;1999.90;;;999.90;;
14015;SDS011;7083;48.854;9.158;2023-03-01T07:56:13;1999.90;;;999.90;;
14015;SDS011;7083;48.854;9.158;2023-03-01T07:58:43;1999.90;;;999.90;;
14015;SDS011;7083;48.854;9.158;2023-03-01T08:01:11;1999.90;;;999.90;;
14015;SDS011;7083;48.854;9.158;2023-03-01T08:03:39;1999.90;;;999.90;;
14015;SDS011;7083;48.854;9.158;2023-03-01T08:06:09;1999.90;;;999.90;;
14015;SDS011;7083;48.854;9.158;2023-03-01T08:08:37;1999.90;;;999.90;;
14015;SDS011;7083;48.854;9.158;2023-03-01T08:11:04;1999.90;;;999.90;;
14015;SDS011;7083;48.854;9.158;2023-03-01T08:13:32;1999.90;;;999.90;;
14015;SDS011;7083;48.854;9.158;2023-03-01T08:16:00;1999.90;;;999.90;;
14015;SDS011;7083;48.854;9.158;2023-03-01T08:18:28;1999.90;;;999.90;;
14015;SDS011;7083;48.854;9.158;2023-03-01T08:20:54;1999.90;;;999.90;;
14015;SDS011;7083;48.854;9.158;2023-03-01T08:23:22;1999.90;;;999.90;;
14015;SDS011;7083;48.854;9.158;2023-03-01T08:25:50;1999.90;;;999.90;;
14015;SDS011;7083;48.854;9.158;2023-03-01T08:28:17;1999.90;;;999.90;;
14015;SDS011;7083;48.854;9.158;2023-03-01T08:30:44;1999.90;;;999.90;;
14015;SDS011;7083;48.854;9.158;2023-03-01T08:33:11;1999.90;;;999.90;;
14015;SDS011;7083;48.854;9.158;2023-03-01T08:35:38;1999.90;;;999.90;;
14015;SDS011;7083;48.854;9.158;2023-03-01T08:38:04;1999.90;;;999.90;;
14015;SDS011;7083;48.854;9.158;2023-03-01T08:40:32;1999.90;;;999.90;;
14015;SDS011;7083;48.854;9.158;2023-03-01T08:42:59;1999.90;;;999.90;;
14015;SDS011;7083;48.854;9.158;2023-03-01T08:45:26;1999.90;;;999.90;;
14015;SDS011;7083;48.854;9.158;2023-03-01T08:47:52;1999.90;;;999.90;;
14015;SDS011;7083;48.854;9.158;2023-03-01T08:50:19;1999.90;;;999.90;;
14015;SDS011;7083;48.854;9.158;2023-03-01T08:52:46;1999.90;;;999.90;;
14015;SDS011;7083;48.854;9.158;2023-03-01T08:55:12;1999.90;;;999.90;;
14015;SDS011;7083;48.854;9.158;2023-03-01T08:57:42;1999.90;;;999.90;;
14015;SDS011;7083;48.854;9.158;2023-03-01T09:00:09;1999.90;;;999.90;;
14015;SDS011;7083;48.854;9.158;2023-03-01T09:02:39;1999.90;;;999.90;;
14015;SDS011;7083;48.854;9.158;2023-03-01T09:05:06;1999.90;;;999.90;;
14015;SDS011;7083;48.854;9.158;2023-03-01T09:07:34;1999.90;;;999.90;;
14015;SDS011;7083;48.854;9.158;2023-03-01T09:10:00;1999.90;;;999.90;;
14015;SDS011;7083;48.854;9.158;2023-03-01T09:12:27;1999.90;;;999.90;;
14015;SDS011;7083;48.854;9.158;2023-03-01T09:14:55;1999.90;;;999.90;;
14015;SDS011;7083;48.854;9.158;2023-03-01T09:17:22;1999.90;;;999.90;;
14015;SDS011;7083;48.854;9.158;2023-03-01T09:19:48;1999.90;;;999.90;;
14015;SDS011;7083;48.854;9.158;2023-03-01T09:22:15;1999.90;;;999.90;;
14015;SDS011;7083;48.854;9.158;2023-03-01T09:24:42;1999.90;;;999.90;;
14015;SDS011;7083;48.854;9.158;2023-03-01T09:27:09;1999.90;;;999.90;;
14015;SDS011;7083;48.854;9.158;2023-03-01T09:29:37;1999.90;;;999.90;;
14015;SDS011;7083;48.854;9.158;2023-03-01T09:32:06;1999.90;;;999.90;;
14015;SDS011;7083;48.854;9.158;2023-03-01T09:34:33;1999.90;;;999.90;;
14015;SDS011;7083;48.854;9.158;2023-03-01T09:37:20;1999.90;;;999.90;;
14015;SDS011;7083;48.854;9.158;2023-03-01T09:39:46;1999.90;;;999.90;;
14015;SDS011;7083;48.854;9.158;2023-03-01T09:42:13;1999.90;;;999.90;;
14015;SDS011;7083;48.854;9.158;2023-03-01T09:44:42;1999.90;;;999.90;;
14015;SDS011;7083;48.854;9.158;2023-03-01T09:47:17;1999.90;;;999.90;;
14015;SDS011;7083;48.854;9.158;2023-03-01T09:49:46;1999.90;;;999.90;;
14015;SDS011;7083;48.854;9.158;2023-03-01T09:52:24;1999.90;;;999.90;;
14015;SDS011;7083;48.854;9.158;2023-03-01T09:54:55;1999.90;;;999.90;;
14015;SDS011;7083;48.854;9.158;2023-03-01T09:57:26;1999.90;;;999.90;;
14015;SDS011;7083;48.854;9.158;2023-03-01T10:02:59;1999.90;;;999.90;;
14015;SDS011;7083;48.854;9.158;2023-03-01T10:05:36;1999.90;;;999.90;;
14015;SDS011;7083;48.854;9.158;2023-03-01T10:08:23;1999.90;;;999.90;;
14015;SDS011;7083;48.854;9.158;2023-03-01T10:10:54;1999.90;;;999.90;;
14015;SDS011;7083;48.854;9.158;2023-03-01T10:13:21;1999.90;;;999.90;;
14015;SDS011;7083;48.854;9.158;2023-03-01T10:15:53;1999.90;;;999.90;;
14015;SDS011;7083;48.854;9.158;2023-03-01T10:18:24;1999.90;;;999.90;;
14015;SDS011;7083;48.854;9.158;2023-03-01T10:20:54;1999.90;;;999.90;;
14015;SDS011;7083;48.854;9.158;2023-03-01T10:23:23;1999.90;;;999.90;;
14015;SDS011;7083;48.854;9.158;2023-03-01T10:25:56;1999.90;;;999.90;;
14015;SDS011;7083;48.854;9.158;2023-03-01T10:28:50;1999.90;;;999.90;;
14015;SDS011;7083;48.854;9.158;2023-03-01T10:31:22;1999.90;;;999.90;;
14015;SDS011;7083;48.854;9.158;2023-03-01T10:33:54;1999.90;;;999.90;;
14015;SDS011;7083;48.854;9.158;2023-03-01T10:36:22;1999.90;;;999.90;;
14015;SDS011;7083;48.854;9.158;2023-03-01T10:38:51;1999.90;;;999.90;;
14015;SDS011;7083;48.854;9.158;2023-03-01T10:41:19;1999.90;;;999.90;;
14015;SDS011;7083;48.854;9.158;2023-03-01T10:43:49;1999.90;;;999.90;;
14015;SDS011;7083;48.854;9.158;2023-03-01T10:46:22;1999.90;;;999.90;;
14015;SDS011;7083;48.854;9.158;2023-03-01T10:51:39;1999.90;;;999.90;;
14015;SDS011;7083;48.854;9.158;2023-03-01T10:54:14;1999.90;;;999.90;;
14015;SDS011;7083;48.854;9.158;2023-03-01T10:56:47;1999.90;;;999.90;;
14015;SDS011;7083;48.854;9.158;2023-03-01T10:59:21;1999.90;;;999.90;;
14015;SDS011;7083;48.854;9.158;2023-03-01T11:02:04;1999.90;;;999.90;;
14015;SDS011;7083;48.854;9.158;2023-03-01T11:04:57;1999.90;;;999.90;;
14015;SDS011;7083;48.854;9.158;2023-03-01T11:07:25;1999.90;;;999.90;;
14015;SDS011;7083;48.854;9.158;2023-03-01T11:09:51;1999.90;;;999.90;;
14015;SDS011;7083;48.854;9.158;2023-03-01T11:12:19;1999.90;;;999.90;;
14015;SDS011;7083;48.854;9.158;2023-03-01T11:14:47;1999.90;;;999.90;;
14015;SDS011;7083;48.854;9.158;2023-03-01T11:17:17;1999.90;;;999.90;;
14015;SDS011;7083;48.854;9.158;2023-03-01T11:20:00;1999.90;;;999.90;;
14015;SDS011;7083;48.854;9.158;2023-03-01T11:22:29;1999.90;;;999.90;;
14015;SDS011;7083;48.854;9.158;2023-03-01T11:24:58;1999.90;;;999.90;;
14015;SDS011;7083;48.854;9.158;2023-03-01T11:27:27;1999.90;;;999.90;;
14015;SDS011;7083;48.854;9.158;2023-03-01T11:29:57;1999.90;;;999.90;;
14015;SDS011;7083;48.854;9.158;2023-03-01T11:32:29;1999.90;;;999.90;;
14015;SDS011;7083;48.854;9.158;2023-03-01T11:35:02;1999.90;;;999.90;;
14015;SDS011;7083;48.854;9.158;2023-03-01T11:37:35;1999.90;;;999.90;;
14015;SDS011;7083;48.854;9.158;2023-03-01T11:40:11;1999.90;;;999.90;;
14015;SDS011;7083;48.854;9.158;2023-03-01T11:42:46;1999.90;;;999.90;;
14015;SDS011;7083;48.854;9.158;2023-03-01T11:45:19;1999.90;;;999.90;;
14015;SDS011;7083;48.854;9.158;2023-03-01T11:47:59;1999.90;;;999.90;;
14015;SDS011;7083;48.854;9.158;2023-03-01T11:50:40;1999.90;;;999.90;;
14015;SDS011;7083;48.854;9.158;2023-03-01T11:53:17;1999.90;;;999.90;;
14015;SDS011;7083;48.854;9.158;2023-03-01T11:56:03;1999.90;;;999.90;;
14015;SDS011;7083;48.854;9.158;2023-03-01T11:58:40;1999.90;;;999.90;;
14015;SDS011;7083;48.854;9.158;2023-03-01T12:01:22;1999.90;;;999.90;;
14015;SDS011;7083;48.854;9.158;2023-03-01T12:04:02;1999.90;;;999.90;;
14015;SDS011;7083;48.854;9.158;2023-03-01T12:06:57;1999.90;;;999.90;;
14015;SDS011;7083;48.854;9.158;2023-03-01T12:12:24;1999.90;;;999.90;;
14015;SDS011;7083;48.854;9.158;2023-03-01T12:15:01;1999.90;;;999.90;;
14015;SDS011;7083;48.854;9.158;2023-03-01T12:17:56;1999.90;;;999.90;;
14015;SDS011;7083;48.854;9.158;2023-03-01T12:20:55;1999.90;;;999.90;;
14015;SDS011;7083;48.854;9.158;2023-03-01T12:23:35;1999.90;;;999.90;;
14015;SDS011;7083;48.854;9.158;2023-03-01T12:26:20;1999.90;;;999.90;;
14015;SDS011;7083;48.854;9.158;2023-03-01T12:28:57;1999.90;;;999.90;;
14015;SDS011;7083;48.854;9.158;2023-03-01T12:31:38;1999.90;;;999.90;;
14015;SDS011;7083;48.854;9.158;2023-03-01T12:34:34;1999.90;;;999.90;;
14015;SDS011;7083;48.854;9.158;2023-03-01T12:37:25;1999.90;;;999.90;;
14015;SDS011;7083;48.854;9.158;2023-03-01T12:40:11;1999.90;;;999.90;;
14015;SDS011;7083;48.854;9.158;2023-03-01T12:42:51;1999.90;;;999.90;;
14015;SDS011;7083;48.854;9.158;2023-03-01T12:45:31;1999.90;;;999.90;;
14015;SDS011;7083;48.854;9.158;2023-03-01T12:48:08;1999.90;;;999.90;;
14015;SDS011;7083;48.854;9.158;2023-03-01T12:50:51;1999.90;;;999.90;;
14015;SDS011;7083;48.854;9.158;2023-03-01T12:53:23;1999.90;;;999.90;;
14015;SDS011;7083;48.854;9.158;2023-03-01T12:55:53;1999.90;;;999.90;;
14015;SDS011;7083;48.854;9.158;2023-03-01T12:58:24;1999.90;;;999.90;;
14015;SDS011;7083;48.854;9.158;2023-03-01T13:00:59;1999.90;;;999.90;;
14015;SDS011;7083;48.854;9.158;2023-03-01T13:03:47;1999.90;;;999.90;;
14015;SDS011;7083;48.854;9.158;2023-03-01T13:06:32;1999.90;;;999.90;;
14015;SDS011;7083;48.854;9.158;2023-03-01T13:09:07;1999.90;;;999.90;;
14015;SDS011;7083;48.854;9.158;2023-03-01T13:11:42;1999.90;;;999.90;;
14015;SDS011;7083;48.854;9.158;2023-03-01T13:17:01;1999.90;;;999.90;;
14015;SDS011;7083;48.854;9.158;2023-03-01T13:19:28;1999.90;;;999.90;;
14015;SDS011;7083;48.854;9.158;2023-03-01T13:21:57;1999.90;;;999.90;;
14015;SDS011;7083;48.854;9.158;2023-03-01T13:24:25;1999.90;;;999.90;;
14015;SDS011;7083;48.854;9.158;2023-03-01T13:27:22;1999.90;;;999.90;;
14015;SDS011;7083;48.854;9.158;2023-03-01T13:29:54;1999.90;;;999.90;;
14015;SDS011;7083;48.854;9.158;2023-03-01T13:32:24;1999.90;;;999.90;;
14015;SDS011;7083;48.854;9.158;2023-03-01T13:34:54;1999.90;;;999.90;;
14015;SDS011;7083;48.854;9.158;2023-03-01T13:37:32;1999.90;;;999.90;;
14015;SDS011;7083;48.854;9.158;2023-03-01T13:40:02;1999.90;;;999.90;;
14015;SDS011;7083;48.854;9.158;2023-03-01T13:42:53;1999.90;;;999.90;;
14015;SDS011;7083;48.854;9.158;2023-03-01T13:45:22;1999.90;;;999.90;;
14015;SDS011;7083;48.854;9.158;2023-03-01T13:47:58;1999.90;;;999.90;;
14015;SDS011;7083;48.854;9.158;2023-03-01T13:50:28;1999.90;;;999.90;;
14015;SDS011;7083;48.854;9.158;2023-03-01T13:53:05;1999.90;;;999.90;;
14015;SDS011;7083;48.854;9.158;2023-03-01T13:55:36;1999.90;;;999.90;;
14015;SDS011;7083;48.854;9.158;2023-03-01T13:58:14;1999.90;;;999.90;;
14015;SDS011;7083;48.854;9.158;2023-03-01T14:00:45;1999.90;;;999.90;;
14015;SDS011;7083;48.854;9.158;2023-03-01T14:03:13;1999.90;;;999.90;;
14015;SDS011;7083;48.854;9.158;2023-03-01T14:05:42;1999.90;;;999.90;;
14015;SDS011;7083;48.854;9.158;2023-03-01T14:08:23;1999.90;;;999.90;;
14015;SDS011;7083;48.854;9.158;2023-03-01T14:10:54;1999.90;;;999.90;;
14015;SDS011;7083;48.854;9.158;2023-03-01T14:13:46;1999.90;;;999.90;;
14015;SDS011;7083;48.854;9.158;2023-03-01T14:16:24;1999.90;;;999.90;;
14015;SDS011;7083;48.854;9.158;2023-03-01T14:19:01;1999.90;;;999.90;;
14015;SDS011;7083;48.854;9.158;2023-03-01T14:21:38;1999.90;;;999.90;;
14015;SDS011;7083;48.854;9.158;2023-03-01T14:24:05;1999.90;;;999.90;;
14015;SDS011;7083;48.854;9.158;2023-03-01T14:26:41;1999.90;;;999.90;;
14015;SDS011;7083;48.854;9.158;2023-03-01T14:32:09;1999.90;;;999.90;;